Time;durP1;ratioP1;P1;durP2;ratioP2;P2;SDS_P1;SDS_P2;PMS_P1;PMS_P2;Temp;Humidity;BMP_temperature;BMP_pressure;BME280_temperature;BME280_humidity;BME280_pressure;Samples;Min_cycle;Max_cycle;Signal;HPM_P1;HPM_P2
2023/10/01 00:00:08;;;;;;;;;;;;;;;13.62;74.89;101762.26;106124;1259;124745;-81
2023/10/01 00:02:36;;;;;;;;;;;;;;;13.61;74.78;101767.20;106538;1259;59441;-79
2023/10/01 00:05:05;;;;;;;;;;;;;;;13.61;74.80;101770.54;106269;1261;124745;-79
2023/10/01 00:07:37;;;;;;;;;;;;;;;13.59;74.66;101769.06;106353;1259;64963;-81
2023/10/01 00:10:11;;;;;;;;;;;;;;;13.55;74.70;101764.55;106260;1259;125139;-79
2023/10/01 00:12:38;;;;;;;;;;;;;;;13.53;74.77;101756.72;106679;1265;61386;-79
2023/10/01 00:15:06;;;;;;;;;;;;;;;13.52;74.69;101761.10;106354;1263;64402;-79
2023/10/01 00:17:32;;;;;;;;;;;;;;;13.50;74.76;101762.27;106178;1259;124834;-79
2023/10/01 00:20:01;;;;;;;;;;;;;;;13.51;74.87;101763.86;106435;1259;64949;-79
2023/10/01 00:22:27;;;;;;;;;;;;;;;13.52;74.81;101766.38;106369;1259;124970;-79
2023/10/01 00:24:54;;;;;;;;;;;;;;;13.54;74.87;101772.45;106466;1260;61334;-78
2023/10/01 00:27:20;;;;;;;;;;;;;;;13.57;74.92;101763.89;106421;1262;61170;-79
2023/10/01 00:29:47;;;;;;;;;;;;;;;13.61;74.85;101756.41;106256;1259;124160;-80
2023/10/01 00:32:13;;;;;;;;;;;;;;;13.64;74.82;101756.31;106363;1259;64079;-81
2023/10/01 00:34:40;;;;;;;;;;;;;;;13.63;74.76;101753.47;106334;1259;124504;-81
2023/10/01 00:37:06;;;;;;;;;;;;;;;13.61;74.70;101758.72;106429;1259;61221;-81
2023/10/01 00:39:34;;;;;;;;;;;;;;;13.61;74.81;101768.77;106438;1259;61146;-80
2023/10/01 00:42:01;;;;;;;;;;;;;;;13.61;74.77;101773.00;106205;1259;124072;-81
2023/10/01 00:44:27;;;;;;;;;;;;;;;13.59;74.82;101765.55;106386;1259;64662;-81
2023/10/01 00:46:54;;;;;;;;;;;;;;;13.57;74.73;101770.58;106374;1259;124226;-81
2023/10/01 00:49:22;;;;;;;;;;;;;;;13.54;74.76;101772.27;106435;1259;61369;-80
2023/10/01 00:51:49;;;;;;;;;;;;;;;13.53;74.92;101771.53;106420;1258;61105;-80
2023/10/01 00:54:16;;;;;;;;;;;;;;;13.54;74.97;101771.20;108420;1259;124583;-78
2023/10/01 00:56:44;;;;;;;;;;;;;;;13.54;75.04;101771.55;106341;1263;66546;-78
2023/10/01 00:59:12;;;;;;;;;;;;;;;13.54;75.04;101774.20;106280;1259;124056;-78
2023/10/01 01:01:41;;;;;;;;;;;;;;;13.54;75.06;101771.20;106423;1264;61302;-79
2023/10/01 01:04:17;;;;;;;;;;;;;;;13.56;75.13;101771.98;106355;1259;124618;-79
2023/10/01 01:06:47;;;;;;;;;;;;;;;13.60;75.21;101765.92;106445;1259;74719;-78
2023/10/01 01:09:15;;;;;;;;;;;;;;;13.64;75.25;101764.77;106297;1258;65546;-79
2023/10/01 01:11:46;;;;;;;;;;;;;;;13.66;75.21;101763.59;106202;1259;124334;-81
2023/10/01 01:14:12;;;;;;;;;;;;;;;13.67;75.27;101756.05;106513;1259;61266;-81
2023/10/01 01:16:40;;;;;;;;;;;;;;;13.68;75.35;101745.66;106387;1260;124752;-81
2023/10/01 01:19:09;;;;;;;;;;;;;;;13.66;75.35;101739.63;106423;1259;75166;-78
2023/10/01 01:21:42;;;;;;;;;;;;;;;13.64;75.22;101735.52;106280;1259;64824;-80
2023/10/01 01:24:09;;;;;;;;;;;;;;;13.63;75.45;101733.02;106259;1259;124248;-81
2023/10/01 01:26:37;;;;;;;;;;;;;;;13.62;75.40;101733.33;106306;1259;59757;-78
2023/10/01 01:29:17;;;;;;;;;;;;;;;13.61;75.53;101738.09;106337;1257;125534;-81
2023/10/01 01:32:02;;;;;;;;;;;;;;;13.62;75.61;101746.73;106292;1259;74394;-80
2023/10/01 01:34:29;;;;;;;;;;;;;;;13.63;75.65;101747.30;106334;1258;124908;-79
2023/10/01 01:36:57;;;;;;;;;;;;;;;13.66;75.67;101746.16;106485;1259;71834;-78
2023/10/01 01:39:35;;;;;;;;;;;;;;;13.71;75.88;101745.40;106436;1259;61201;-81
2023/10/01 01:42:02;;;;;;;;;;;;;;;13.75;75.86;101730.88;106485;1263;125561;-81
2023/10/01 01:44:31;;;;;;;;;;;;;;;13.80;75.74;101726.44;106382;1259;74720;-78
2023/10/01 01:47:00;;;;;;;;;;;;;;;13.84;75.58;101733.77;106031;1262;124995;-80
2023/10/01 01:49:27;;;;;;;;;;;;;;;13.88;75.66;101732.09;106377;1260;73088;-79
2023/10/01 01:51:59;;;;;;;;;;;;;;;13.92;75.77;101733.45;106299;1261;61325;-80
2023/10/01 01:54:37;;;;;;;;;;;;;;;13.97;75.81;101742.26;106374;1259;61254;-79
2023/10/01 01:57:08;;;;;;;;;;;;;;;14.02;75.77;101745.91;106264;1259;72846;-79
2023/10/01 01:59:36;;;;;;;;;;;;;;;14.08;75.98;101744.48;106310;1264;124831;-80
2023/10/01 02:02:05;;;;;;;;;;;;;;;14.14;76.06;101743.04;106449;1259;72494;-80
2023/10/01 02:04:31;;;;;;;;;;;;;;;14.16;76.14;101741.34;106525;1259;125059;-80
2023/10/01 02:06:59;;;;;;;;;;;;;;;14.17;76.25;101740.65;106353;1261;61475;-81
2023/10/01 02:09:25;;;;;;;;;;;;;;;14.17;76.26;101741.89;106195;1259;74675;-81
2023/10/01 02:11:54;;;;;;;;;;;;;;;14.18;76.32;101750.73;106126;1259;124981;-82
2023/10/01 02:14:30;;;;;;;;;;;;;;;14.19;76.45;101742.99;106369;1259;72414;-79
2023/10/01 02:17:18;;;;;;;;;;;;;;;14.18;76.51;101747.73;106330;1261;125517;-79
2023/10/01 02:19:47;;;;;;;;;;;;;;;14.18;76.59;101741.38;106258;1259;61251;-80
2023/10/01 02:22:16;;;;;;;;;;;;;;;14.19;76.78;101741.93;106296;1263;125359;-79
2023/10/01 02:24:54;;;;;;;;;;;;;;;14.19;76.80;101734.90;106678;1260;64757;-79
2023/10/01 02:27:24;;;;;;;;;;;;;;;14.18;76.82;101731.16;106275;1259;72784;-79
2023/10/01 02:32:38;;;;;;;;;;;;;;;14.18;76.99;101729.55;106438;1262;61229;-79
2023/10/01 02:35:34;;;;;;;;;;;;;;;14.19;77.13;101733.82;106348;1263;124887;-80
2023/10/01 02:37:54;;;;;;;;;;;;;;;14.17;77.14;101730.40;106367;1261;66391;-80
2023/10/01 02:40:21;;;;;;;;;;;;;;;14.15;77.14;101729.67;106290;1260;125608;-79
2023/10/01 02:42:49;;;;;;;;;;;;;;;14.15;77.25;101722.95;106254;1259;61371;-79
2023/10/01 02:45:32;;;;;;;;;;;;;;;14.13;77.15;101723.42;106303;1260;61358;-79
2023/10/01 02:48:16;;;;;;;;;;;;;;;14.08;77.09;101725.23;106163;1259;125666;-79
2023/10/01 02:50:51;;;;;;;;;;;;;;;14.02;77.21;101720.47;106346;1259;66282;-79
2023/10/01 02:53:20;;;;;;;;;;;;;;;13.94;77.06;101715.88;106164;1260;125849;-79
2023/10/01 02:55:47;;;;;;;;;;;;;;;13.88;77.14;101712.88;106357;1259;61269;-79
2023/10/01 02:58:27;;;;;;;;;;;;;;;13.83;77.33;101706.39;106422;1263;125110;-79
2023/10/01 03:00:54;;;;;;;;;;;;;;;13.79;77.39;101709.64;106367;1259;73573;-79
2023/10/01 03:03:32;;;;;;;;;;;;;;;13.74;77.43;101714.10;106392;1259;66330;-79
2023/10/01 03:05:58;;;;;;;;;;;;;;;13.70;77.47;101712.40;106257;1263;125232;-79
2023/10/01 03:08:41;;;;;;;;;;;;;;;13.66;77.59;101714.23;106132;1259;59355;-78
2023/10/01 03:11:09;;;;;;;;;;;;;;;13.63;77.61;101709.02;106212;1259;125333;-79
2023/10/01 03:13:38;;;;;;;;;;;;;;;13.60;77.77;101706.30;106181;1259;73446;-78
2023/10/01 03:16:40;;;;;;;;;;;;;;;13.59;77.88;101705.92;106303;1263;124988;-79
2023/10/01 03:19:13;;;;;;;;;;;;;;;13.59;77.99;101701.52;106482;1259;71119;-80
2023/10/01 03:24:27;;;;;;;;;;;;;;;13.55;77.97;101702.79;106094;1259;124752;-79
2023/10/01 03:26:57;;;;;;;;;;;;;;;13.53;78.04;101706.11;106232;1260;74501;-80
2023/10/01 03:29:34;;;;;;;;;;;;;;;13.54;78.21;101706.14;106055;1260;125401;-80
2023/10/01 03:32:26;;;;;;;;;;;;;;;13.56;78.33;101701.95;106499;1259;73284;-81
2023/10/01 03:34:52;;;;;;;;;;;;;;;13.59;78.32;101700.80;106363;1259;124885;-81
2023/10/01 03:37:19;;;;;;;;;;;;;;;13.57;78.27;101695.83;106418;1259;61297;-79
2023/10/01 03:40:36;;;;;;;;;;;;;;;13.57;78.43;101697.56;106258;1259;73725;-80
2023/10/01 03:42:36;;;;;;;;;;;;;;;13.61;78.59;101701.38;106309;1259;64947;-80
2023/10/01 03:45:26;;;;;;;;;;;;;;;13.64;78.72;101700.75;106259;1264;72668;-80
2023/10/01 03:47:58;;;;;;;;;;;;;;;13.68;78.73;101700.52;106055;1261;124936;-80
2023/10/01 03:50:25;;;;;;;;;;;;;;;13.74;78.84;101698.38;106267;1259;59279;-80
2023/10/01 03:52:54;;;;;;;;;;;;;;;13.77;78.72;101695.48;106118;1262;125048;-79
2023/10/01 03:55:27;;;;;;;;;;;;;;;13.80;78.80;101694.51;106385;1263;66629;-79
2023/10/01 03:58:06;;;;;;;;;;;;;;;13.83;78.74;101695.28;107478;1263;73246;-81
2023/10/01 04:03:13;;;;;;;;;;;;;;;13.90;78.80;101696.70;106341;1260;61365;-80
2023/10/01 04:05:44;;;;;;;;;;;;;;;13.91;78.74;101695.52;107535;1259;125140;-81
2023/10/01 04:08:14;;;;;;;;;;;;;;;13.94;78.80;101690.12;106374;1259;64671;-80
2023/10/01 04:10:51;;;;;;;;;;;;;;;13.99;78.75;101687.22;106266;1259;124963;-81
2023/10/01 04:13:21;;;;;;;;;;;;;;;14.02;78.86;101688.38;106318;1260;61311;-82
2023/10/01 04:15:48;;;;;;;;;;;;;;;14.05;78.67;101692.32;106544;1259;61229;-82
2023/10/01 04:20:48;;;;;;;;;;;;;;;14.06;78.73;101686.88;106456;1259;65617;-80
2023/10/01 04:23:30;;;;;;;;;;;;;;;14.05;78.77;101686.52;106240;1264;125003;-81
2023/10/01 04:26:00;;;;;;;;;;;;;;;14.08;78.79;101684.29;106305;1262;61378;-80
2023/10/01 04:28:31;;;;;;;;;;;;;;;14.08;78.69;101684.64;106285;1259;125093;-86
2023/10/01 04:30:57;;;;;;;;;;;;;;;14.05;78.69;101682.27;106352;1262;74784;-86
2023/10/01 04:33:24;;;;;;;;;;;;;;;14.03;78.74;101679.39;106310;1264;66055;-86
2023/10/01 04:35:58;;;;;;;;;;;;;;;14.00;78.74;101683.55;106198;1262;124829;-86
2023/10/01 04:38:32;;;;;;;;;;;;;;;13.97;78.84;101681.55;106437;1260;61308;-86
2023/10/01 04:41:02;;;;;;;;;;;;;;;13.94;78.86;101686.40;106007;1262;125936;-82
2023/10/01 04:43:34;;;;;;;;;;;;;;;13.93;78.94;101687.95;106312;1262;74382;-82
2023/10/01 04:46:04;;;;;;;;;;;;;;;13.93;79.07;101688.14;106290;1259;64771;-84
2023/10/01 04:48:33;;;;;;;;;;;;;;;13.95;79.14;101689.08;106227;1261;124523;-83
2023/10/01 04:51:02;;;;;;;;;;;;;;;13.97;79.08;101686.83;106299;1264;61192;-83
2023/10/01 04:53:30;;;;;;;;;;;;;;;13.96;79.12;101679.57;106194;1260;124781;-83
2023/10/01 04:56:06;;;;;;;;;;;;;;;13.96;79.12;101682.93;106340;1259;74444;-83
2023/10/01 04:58:36;;;;;;;;;;;;;;;13.94;79.14;101684.47;106108;1261;125036;-82
2023/10/01 05:01:12;;;;;;;;;;;;;;;13.93;79.10;101687.77;106134;1259;72731;-81
2023/10/01 05:03:39;;;;;;;;;;;;;;;13.89;79.06;101685.39;106294;1263;61260;-81
2023/10/01 05:06:12;;;;;;;;;;;;;;;13.88;79.16;101688.36;106309;1263;125346;-80
2023/10/01 05:08:39;;;;;;;;;;;;;;;13.87;79.16;101689.90;106389;1260;73422;-80
2023/10/01 05:11:10;;;;;;;;;;;;;;;13.85;79.18;101699.75;106153;1259;124915;-81
2023/10/01 05:13:39;;;;;;;;;;;;;;;13.85;79.27;101703.27;106189;1262;72723;-84
2023/10/01 05:16:12;;;;;;;;;;;;;;;13.85;79.32;101706.61;106119;1265;61420;-83
2023/10/01 05:18:39;;;;;;;;;;;;;;;13.84;79.22;101713.84;106468;1264;61125;-83
2023/10/01 05:21:12;;;;;;;;;;;;;;;13.85;79.34;101718.44;106205;1263;73603;-89
2023/10/01 05:23:41;;;;;;;;;;;;;;;13.85;79.28;101718.61;106216;1259;125211;-88
2023/10/01 05:26:08;;;;;;;;;;;;;;;13.87;79.38;101720.42;106438;1265;73759;-82
2023/10/01 05:28:36;;;;;;;;;;;;;;;13.88;79.44;101716.23;106290;1259;125062;-81
2023/10/01 05:31:06;;;;;;;;;;;;;;;13.91;79.49;101713.84;106308;1259;61207;-82
2023/10/01 05:33:35;;;;;;;;;;;;;;;13.94;79.48;101713.58;106423;1259;74552;-82
2023/10/01 05:36:05;;;;;;;;;;;;;;;13.97;79.53;101720.36;106298;1259;124820;-82
2023/10/01 05:38:35;;;;;;;;;;;;;;;14.00;79.48;101723.26;106652;1264;71495;-82
2023/10/01 05:41:03;;;;;;;;;;;;;;;14.03;79.43;101721.41;106193;1260;125249;-85
2023/10/01 05:43:35;;;;;;;;;;;;;;;14.08;79.57;101721.33;106348;1261;61357;-85
2023/10/01 05:46:02;;;;;;;;;;;;;;;14.12;79.47;101727.29;106336;1261;74685;-85
2023/10/01 05:48:29;;;;;;;;;;;;;;;14.15;79.33;101729.29;106154;1259;124983;-86
2023/10/01 05:50:58;;;;;;;;;;;;;;;14.16;79.32;101725.63;106201;1259;71815;-84
2023/10/01 05:53:25;;;;;;;;;;;;;;;14.20;79.34;101729.08;106082;1259;124817;-85
2023/10/01 05:55:52;;;;;;;;;;;;;;;14.22;79.25;101731.06;106426;1260;61343;-85
2023/10/01 05:58:21;;;;;;;;;;;;;;;14.24;79.14;101729.52;106341;1259;125157;-85
2023/10/01 06:00:58;;;;;;;;;;;;;;;14.23;79.15;101731.61;106405;1259;64798;-84
2023/10/01 06:03:25;;;;;;;;;;;;;;;14.26;79.25;101730.11;106423;1259;72588;-86
2023/10/01 06:05:58;;;;;;;;;;;;;;;14.30;79.09;101724.38;106221;1259;124841;-86
2023/10/01 06:08:32;;;;;;;;;;;;;;;14.34;79.11;101721.83;106471;1258;61282;-86
2023/10/01 06:11:04;;;;;;;;;;;;;;;14.39;79.07;101724.08;106090;1263;124114;-86
2023/10/01 06:13:35;;;;;;;;;;;;;;;14.46;79.08;101723.73;106419;1259;66807;-86
2023/10/01 06:16:16;;;;;;;;;;;;;;;14.59;79.18;101723.35;106415;1260;71228;-86
2023/10/01 06:18:50;;;;;;;;;;;;;;;14.70;79.07;101726.81;106231;1265;61258;-86
2023/10/01 06:21:18;;;;;;;;;;;;;;;14.76;78.89;101725.89;106252;1259;61164;-86
2023/10/01 06:23:50;;;;;;;;;;;;;;;14.81;78.78;101729.37;106350;1264;124379;-88
2023/10/01 06:26:22;;;;;;;;;;;;;;;14.89;78.77;101729.73;106166;1262;66080;-83
2023/10/01 06:28:49;;;;;;;;;;;;;;;14.99;78.78;101731.53;106310;1259;124820;-83
2023/10/01 06:31:16;;;;;;;;;;;;;;;15.06;78.75;101734.70;106111;1260;61180;-84
2023/10/01 06:33:45;;;;;;;;;;;;;;;15.12;78.50;101742.27;106225;1259;61199;-83
2023/10/01 06:36:25;;;;;;;;;;;;;;;15.21;78.50;101740.33;105973;1265;124854;-83
2023/10/01 06:38:54;;;;;;;;;;;;;;;15.39;78.60;101737.70;106286;1259;66284;-84
2023/10/01 06:41:25;;;;;;;;;;;;;;;15.57;78.44;101732.78;106130;1259;124972;-83
2023/10/01 06:43:55;;;;;;;;;;;;;;;15.71;78.19;101736.96;106353;1262;61369;-83
2023/10/01 06:46:28;;;;;;;;;;;;;;;15.83;77.99;101736.86;106186;1261;125069;-86
2023/10/01 06:48:56;;;;;;;;;;;;;;;15.92;77.60;101741.98;106260;1259;73404;-84
2023/10/01 06:51:24;;;;;;;;;;;;;;;15.99;77.41;101745.30;106272;1260;65012;-83
2023/10/01 06:54:05;;;;;;;;;;;;;;;16.02;77.17;101751.20;106074;1260;125579;-83
2023/10/01 06:56:35;;;;;;;;;;;;;;;16.05;77.05;101750.36;106193;1265;61356;-84
2023/10/01 06:59:13;;;;;;;;;;;;;;;16.06;76.91;101754.46;106239;1260;124882;-83
2023/10/01 07:01:56;;;;;;;;;;;;;;;16.08;76.77;101755.91;106216;1262;74232;-84
2023/10/01 07:04:25;;;;;;;;;;;;;;;16.11;76.85;101752.79;106065;1265;125060;-82
2023/10/01 07:06:54;;;;;;;;;;;;;;;16.16;76.77;101754.63;106202;1262;72394;-84
2023/10/01 07:09:34;;;;;;;;;;;;;;;16.26;76.77;101749.49;106335;1260;61992;-83
2023/10/01 07:12:01;;;;;;;;;;;;;;;16.36;76.72;101750.20;106049;1259;125198;-83
2023/10/01 07:14:44;;;;;;;;;;;;;;;16.43;76.55;101749.45;106294;1260;74766;-84
2023/10/01 07:17:13;;;;;;;;;;;;;;;16.44;76.30;101746.97;106182;1259;124729;-83
2023/10/01 07:19:41;;;;;;;;;;;;;;;16.43;76.15;101752.28;106268;1259;71892;-86
2023/10/01 07:22:08;;;;;;;;;;;;;;;16.45;76.03;101753.89;106314;1265;61190;-82
2023/10/01 07:24:35;;;;;;;;;;;;;;;16.46;75.96;101748.95;106266;1261;125465;-84
2023/10/01 07:27:06;;;;;;;;;;;;;;;16.46;76.03;101749.33;106152;1263;74713;-83
2023/10/01 07:29:34;;;;;;;;;;;;;;;16.48;76.00;101756.79;106316;1259;124064;-84
2023/10/01 07:32:07;;;;;;;;;;;;;;;16.56;76.04;101760.11;106104;1261;71572;-83
2023/10/01 07:34:39;;;;;;;;;;;;;;;16.71;76.10;101761.41;105975;1265;124763;-83
2023/10/01 07:37:07;;;;;;;;;;;;;;;16.86;75.94;101760.77;106189;1264;61124;-80
2023/10/01 07:39:36;;;;;;;;;;;;;;;16.93;75.49;101753.79;106167;1262;74709;-81
2023/10/01 07:42:10;;;;;;;;;;;;;;;16.89;75.17;101750.73;106051;1265;124225;-84
2023/10/01 07:44:36;;;;;;;;;;;;;;;16.87;75.09;101754.08;106261;1261;71417;-81
2023/10/01 07:47:03;;;;;;;;;;;;;;;16.86;75.01;101760.27;106142;1263;124606;-89
2023/10/01 07:49:48;;;;;;;;;;;;;;;16.87;75.07;101762.77;106091;1262;61293;-89
2023/10/01 07:52:18;;;;;;;;;;;;;;;16.93;75.08;101766.92;106249;1262;73389;-88
2023/10/01 07:54:47;;;;;;;;;;;;;;;17.03;74.90;101768.15;106255;1259;68623;-90
2023/10/01 07:57:15;;;;;;;;;;;;;;;17.21;75.14;101764.49;106232;1261;73019;-87
2023/10/01 07:59:43;;;;;;;;;;;;;;;17.40;75.01;101761.55;106290;1263;124819;-87
2023/10/01 08:02:19;;;;;;;;;;;;;;;17.47;74.53;101761.83;106320;1258;61370;-84
2023/10/01 08:07:16;;;;;;;;;;;;;;;17.67;74.24;101764.37;106263;1263;66407;-85
2023/10/01 08:09:51;;;;;;;;;;;;;;;17.81;74.07;101768.45;106164;1265;70831;-84
2023/10/01 08:12:19;;;;;;;;;;;;;;;18.05;73.95;101769.10;106124;1259;127156;-82
2023/10/01 08:15:15;;;;;;;;;;;;;;;18.35;73.88;101774.38;106236;1263;61205;-82
2023/10/01 08:17:35;;;;;;;;;;;;;;;18.62;73.28;101783.14;106345;1259;125289;-83
2023/10/01 08:20:17;;;;;;;;;;;;;;;18.82;72.88;101783.84;106474;1259;65619;-83
2023/10/01 08:22:43;;;;;;;;;;;;;;;18.99;72.42;101782.91;106343;1259;124653;-83
2023/10/01 08:25:12;;;;;;;;;;;;;;;19.14;71.90;101787.27;106222;1260;61433;-82
2023/10/01 08:28:08;;;;;;;;;;;;;;;19.34;71.61;101785.43;106467;1260;61357;-83
2023/10/01 08:30:38;;;;;;;;;;;;;;;19.60;71.23;101783.95;106350;1260;124135;-83
2023/10/01 08:33:26;;;;;;;;;;;;;;;19.67;70.42;101780.60;106345;1262;65120;-82
2023/10/01 08:36:12;;;;;;;;;;;;;;;19.59;69.96;101781.27;106154;1264;124273;-83
2023/10/01 08:38:47;;;;;;;;;;;;;;;19.57;69.70;101785.89;106179;1262;59396;-84
2023/10/01 08:41:32;;;;;;;;;;;;;;;19.54;69.30;101784.81;106374;1265;124002;-84
2023/10/01 08:44:09;;;;;;;;;;;;;;;19.56;69.23;101788.57;106188;1265;73567;-84
2023/10/01 08:46:39;;;;;;;;;;;;;;;19.57;69.00;101791.95;106244;1262;125736;-85
2023/10/01 08:49:30;;;;;;;;;;;;;;;19.51;68.77;101787.46;106386;1260;71461;-84
2023/10/01 08:52:19;;;;;;;;;;;;;;;19.53;68.95;101792.30;106251;1265;61329;-84
2023/10/01 08:54:45;;;;;;;;;;;;;;;19.72;68.75;101787.58;106455;1262;61104;-82
2023/10/01 08:57:22;;;;;;;;;;;;;;;19.84;68.31;101788.52;106637;1262;73482;-85
2023/10/01 08:59:53;;;;;;;;;;;;;;;19.85;67.95;101785.86;106445;1261;124297;-84
2023/10/01 09:02:21;;;;;;;;;;;;;;;19.90;67.81;101786.23;106818;1262;71405;-86
2023/10/01 09:04:48;;;;;;;;;;;;;;;20.02;67.59;101785.73;106441;1263;124581;-86
2023/10/01 09:07:18;;;;;;;;;;;;;;;20.12;67.28;101784.48;106549;1259;61445;-83
2023/10/01 09:09:52;;;;;;;;;;;;;;;20.24;67.07;101778.10;106650;1260;73631;-86
2023/10/01 09:12:19;;;;;;;;;;;;;;;20.43;66.84;101772.60;106272;1262;124043;-86
2023/10/01 09:14:46;;;;;;;;;;;;;;;20.61;66.41;101773.70;106216;1262;71084;-86
2023/10/01 09:17:24;;;;;;;;;;;;;;;20.77;65.97;101772.80;106256;1261;125136;-86
2023/10/01 09:19:51;;;;;;;;;;;;;;;20.86;65.88;101773.33;106347;1264;185633;-86
2023/10/01 09:25:19;;;;;;;;;;;;;;;20.80;64.79;101771.91;106247;1265;64643;-87
2023/10/01 09:27:59;;;;;;;;;;;;;;;20.61;64.73;101772.26;106282;1260;72684;-86
2023/10/01 09:30:26;;;;;;;;;;;;;;;20.50;64.53;101772.96;106164;1262;124271;-86
2023/10/01 09:32:56;;;;;;;;;;;;;;;20.47;64.65;101770.81;106370;1261;59663;-85
2023/10/01 09:35:39;;;;;;;;;;;;;;;20.52;64.50;101767.26;106117;1261;124595;-87
2023/10/01 09:38:12;;;;;;;;;;;;;;;20.48;63.80;101765.11;106372;1260;64972;-85
2023/10/01 09:40:42;;;;;;;;;;;;;;;20.39;63.89;101769.03;106289;1263;124414;-85
2023/10/01 09:43:18;;;;;;;;;;;;;;;20.49;63.87;101767.77;106502;1265;61268;-85
2023/10/01 09:45:46;;;;;;;;;;;;;;;20.66;64.00;101770.48;106321;1260;61365;-85
2023/10/01 09:48:29;;;;;;;;;;;;;;;20.72;63.45;101762.81;107096;1260;125012;-86
2023/10/01 09:51:14;;;;;;;;;;;;;;;20.61;62.88;101770.30;106517;1260;65778;-86
2023/10/01 09:53:53;;;;;;;;;;;;;;;20.37;62.39;101769.55;106178;1260;124330;-88
2023/10/01 09:56:26;;;;;;;;;;;;;;;20.23;62.58;101772.77;106645;1267;61214;-88
2023/10/01 09:58:58;;;;;;;;;;;;;;;20.09;62.37;101770.23;106391;1262;123784;-85
2023/10/01 10:01:27;;;;;;;;;;;;;;;20.01;62.45;101769.51;106350;1259;74722;-86
2023/10/01 10:03:56;;;;;;;;;;;;;;;19.91;62.26;101769.66;106860;1263;66262;-92
2023/10/01 10:06:26;;;;;;;;;;;;;;;19.73;61.83;101768.89;106215;1259;124309;-83
2023/10/01 10:09:06;;;;;;;;;;;;;;;19.51;61.95;101775.91;106326;1259;59392;-87
2023/10/01 10:11:36;;;;;;;;;;;;;;;19.39;62.22;101782.25;106229;1264;124608;-87
2023/10/01 10:14:33;;;;;;;;;;;;;;;19.36;62.32;101781.16;106906;1258;74666;-88
2023/10/01 10:16:59;;;;;;;;;;;;;;;19.36;61.98;101784.02;105718;1271;124664;-87
2023/10/01 10:19:26;;;;;;;;;;;;;;;19.30;62.32;101780.07;105836;1270;72756;-87
2023/10/01 10:24:32;;;;;;;;;;;;;;;19.21;62.19;101780.54;105686;1268;124457;-88
2023/10/01 10:27:15;;;;;;;;;;;;;;;19.11;62.23;101782.80;105869;1270;73821;-88
2023/10/01 10:29:57;;;;;;;;;;;;;;;19.06;62.43;101783.48;105640;1270;124409;-87
2023/10/01 10:32:27;;;;;;;;;;;;;;;19.01;62.45;101786.13;105941;1270;71886;-88
2023/10/01 10:35:15;;;;;;;;;;;;;;;19.03;62.67;101779.20;105739;1267;124357;-88
2023/10/01 10:37:53;;;;;;;;;;;;;;;19.16;62.73;101779.63;105938;1267;61224;-89
2023/10/01 10:42:46;;;;;;;;;;;;;;;19.53;62.49;101783.91;105840;1271;66514;-88
2023/10/01 10:45:19;;;;;;;;;;;;;;;19.59;62.10;101785.38;105809;1271;73730;-87
2023/10/01 10:48:01;;;;;;;;;;;;;;;19.55;61.85;101781.61;105793;1270;124323;-87
2023/10/01 10:50:44;;;;;;;;;;;;;;;19.63;61.86;101780.39;105878;1273;61518;-87
2023/10/01 10:53:20;;;;;;;;;;;;;;;19.68;61.68;101777.39;105801;1271;124345;-87
2023/10/01 10:55:51;;;;;;;;;;;;;;;19.63;61.29;101778.80;106248;1264;66484;-87
2023/10/01 10:58:19;;;;;;;;;;;;;;;19.57;61.11;101786.60;106280;1262;73596;-87
2023/10/01 11:00:47;;;;;;;;;;;;;;;19.42;60.45;101789.21;106633;1264;61256;-86
2023/10/01 11:03:13;;;;;;;;;;;;;;;19.27;60.64;101790.55;106434;1263;61261;-86
2023/10/01 11:05:49;;;;;;;;;;;;;;;19.16;60.18;101794.77;106235;1267;124339;-86
2023/10/01 11:08:28;;;;;;;;;;;;;;;18.85;59.71;101788.50;106446;1263;66189;-87
2023/10/01 11:10:55;;;;;;;;;;;;;;;18.62;60.06;101787.58;106432;1263;124533;-87
2023/10/01 11:13:35;;;;;;;;;;;;;;;18.50;60.23;101792.45;106434;1263;61363;-86
2023/10/01 11:16:13;;;;;;;;;;;;;;;18.44;60.37;101793.11;106339;1263;61244;-86
2023/10/01 11:18:41;;;;;;;;;;;;;;;18.47;60.59;101790.65;106271;1261;123878;-86
2023/10/01 11:21:13;;;;;;;;;;;;;;;18.47;60.58;101788.69;106365;1266;66713;-86
2023/10/01 11:23:39;;;;;;;;;;;;;;;18.49;60.82;101786.94;106619;1263;124110;-86
2023/10/01 11:26:06;;;;;;;;;;;;;;;18.53;60.89;101786.61;106389;1263;61291;-86
2023/10/01 11:28:41;;;;;;;;;;;;;;;18.58;60.98;101787.19;106299;1260;124374;-86
2023/10/01 11:31:23;;;;;;;;;;;;;;;18.63;61.02;101781.55;106209;1260;74782;-86
2023/10/01 11:34:02;;;;;;;;;;;;;;;18.76;61.13;101780.05;106362;1264;64270;-88
2023/10/01 11:36:35;;;;;;;;;;;;;;;18.95;61.17;101770.07;106234;1266;124198;-86
2023/10/01 11:39:03;;;;;;;;;;;;;;;19.10;60.71;101772.84;106851;1259;61277;-86
2023/10/01 11:41:40;;;;;;;;;;;;;;;19.21;60.48;101770.24;106321;1263;124129;-86
2023/10/01 11:44:09;;;;;;;;;;;;;;;19.42;60.45;101770.52;106370;1261;75190;-89
2023/10/01 11:46:57;;;;;;;;;;;;;;;19.67;60.43;101759.77;106203;1263;124699;-88
2023/10/01 11:49:34;;;;;;;;;;;;;;;19.99;60.39;101758.10;106520;1263;72856;-87
2023/10/01 11:52:25;;;;;;;;;;;;;;;20.29;59.89;101751.02;106395;1259;59949;-88
2023/10/01 11:54:55;;;;;;;;;;;;;;;20.60;59.25;101753.71;106232;1260;60344;-88
2023/10/01 11:57:22;;;;;;;;;;;;;;;20.86;59.00;101750.50;106353;1258;73461;-89
2023/10/01 11:59:55;;;;;;;;;;;;;;;21.03;58.20;101751.89;106463;1260;124247;-88
2023/10/01 12:02:29;;;;;;;;;;;;;;;21.12;57.93;101748.46;106374;1260;73647;-87
2023/10/01 12:04:56;;;;;;;;;;;;;;;21.24;57.87;101743.80;106370;1261;124585;-87
2023/10/01 12:07:24;;;;;;;;;;;;;;;21.35;57.56;101745.55;106464;1260;61292;-88
2023/10/01 12:09:51;;;;;;;;;;;;;;;21.40;57.58;101747.30;106304;1261;74561;-88
2023/10/01 12:12:25;;;;;;;;;;;;;;;21.43;57.29;101751.05;106336;1262;124075;-86
2023/10/01 12:15:33;;;;;;;;;;;;;;;21.30;56.46;101755.73;106503;1261;72825;-86
2023/10/01 12:17:47;;;;;;;;;;;;;;;21.08;56.44;101750.09;106516;1260;124314;-87
2023/10/01 12:20:22;;;;;;;;;;;;;;;21.00;56.38;101753.51;106409;1260;61169;-88
2023/10/01 12:26:31;;;;;;;;;;;;;;;20.51;55.51;101764.39;106408;1261;65692;-81
2023/10/01 12:29:11;;;;;;;;;;;;;;;20.11;55.43;101767.92;106416;1261;124256;-85
2023/10/01 12:31:27;;;;;;;;;;;;;;;19.84;55.69;101766.08;106332;1261;61393;-87
2023/10/01 12:33:58;;;;;;;;;;;;;;;19.65;55.42;101769.20;106404;1260;59700;-86
2023/10/01 12:36:31;;;;;;;;;;;;;;;19.44;55.47;101770.70;106380;1263;124226;-86
2023/10/01 12:44:25;;;;;;;;;;;;;;;19.07;55.77;101762.50;106690;1260;60386;-86
2023/10/01 12:46:52;;;;;;;;;;;;;;;19.05;56.00;101761.78;106446;1263;124395;-86
2023/10/01 12:49:18;;;;;;;;;;;;;;;19.07;56.05;101761.06;106728;1260;74762;-85
2023/10/01 12:51:54;;;;;;;;;;;;;;;19.03;56.17;101758.91;106863;1261;66271;-85
2023/10/01 12:54:25;;;;;;;;;;;;;;;18.99;56.20;101760.86;106504;1260;124112;-85
2023/10/01 12:59:41;;;;;;;;;;;;;;;18.86;56.30;101758.09;106980;1259;124430;-86
2023/10/01 13:02:22;;;;;;;;;;;;;;;18.75;56.30;101756.20;106879;1260;74821;-85
2023/10/01 13:04:50;;;;;;;;;;;;;;;18.70;56.50;101761.33;106461;1259;124176;-86
2023/10/01 13:07:35;;;;;;;;;;;;;;;18.70;56.54;101759.55;107543;1259;72731;-86
2023/10/01 13:10:05;;;;;;;;;;;;;;;18.69;56.64;101757.77;106709;1262;61264;-86
2023/10/01 13:12:39;;;;;;;;;;;;;;;18.71;56.88;101753.51;106510;1260;124084;-86
2023/10/01 13:15:15;;;;;;;;;;;;;;;18.72;56.84;101756.71;106304;1260;74478;-87
2023/10/01 13:17:45;;;;;;;;;;;;;;;18.78;56.86;101758.36;106287;1260;124634;-86
2023/10/01 13:20:26;;;;;;;;;;;;;;;18.90;57.09;101754.74;106277;1264;71416;-86